createdAt,value
2019-05-10T00:02:40.826Z,63.10
2019-05-10T00:07:43.548Z,63.70
2019-05-10T00:12:46.275Z,64.00
2019-05-10T00:17:48.956Z,64.60
2019-05-10T00:22:51.755Z,64.90
2019-05-10T00:27:54.499Z,65.00
2019-05-10T00:32:57.258Z,65.10
2019-05-10T00:37:59.984Z,65.00
2019-05-10T00:43:02.954Z,65.50
2019-05-10T00:48:05.686Z,65.50
2019-05-10T00:53:08.432Z,65.70
2019-05-10T00:58:11.240Z,65.60
2019-05-10T01:03:13.911Z,65.30
2019-05-10T01:08:16.566Z,65.80
2019-05-10T01:13:19.227Z,66.00
2019-05-10T01:18:21.916Z,65.50
2019-05-10T01:23:24.629Z,65.30
2019-05-10T01:28:27.371Z,65.60
2019-05-10T01:33:30.044Z,65.70
2019-05-10T01:38:32.696Z,65.40
2019-05-10T01:43:35.364Z,65.30
2019-05-10T01:48:38.092Z,65.60
2019-05-10T01:54:00.164Z,65.50
2019-05-10T01:59:02.818Z,65.70
2019-05-10T02:04:05.479Z,65.80
2019-05-10T02:09:08.206Z,66.00
2019-05-10T02:14:13.769Z,66.00
2019-05-10T02:19:16.437Z,66.10
2019-05-10T02:24:19.108Z,66.50
2019-05-10T02:29:22.098Z,66.90
2019-05-10T02:34:24.866Z,67.40
2019-05-10T02:39:28.003Z,67.70
2019-05-10T02:44:30.726Z,67.80
2019-05-10T02:49:33.387Z,68.00
2019-05-10T02:54:36.123Z,68.30
2019-05-10T02:59:59.702Z,68.60
2019-05-10T03:05:03.411Z,68.70
2019-05-10T03:10:11.328Z,69.00
2019-05-10T03:15:35.208Z,69.30
2019-05-10T03:20:38.439Z,69.40
2019-05-10T03:25:41.314Z,69.90
2019-05-10T03:31:03.591Z,70.70
2019-05-10T03:36:27.168Z,70.90
2019-05-10T03:41:29.884Z,71.30
2019-05-10T03:46:32.561Z,71.70
2019-05-10T03:51:35.301Z,72.00
2019-05-10T03:56:38.034Z,72.50
2019-05-10T04:01:40.712Z,72.10
2019-05-10T04:06:43.451Z,71.80
2019-05-10T04:11:46.112Z,72.10
2019-05-10T04:16:48.843Z,72.20
2019-05-10T04:21:51.565Z,72.40
2019-05-10T04:26:54.238Z,72.40
2019-05-10T04:31:56.903Z,72.70
2019-05-10T04:36:59.655Z,72.60
2019-05-10T04:42:02.390Z,72.50
2019-05-10T04:47:05.117Z,73.50
2019-05-10T04:52:07.936Z,72.60
2019-05-10T04:57:10.588Z,72.80
2019-05-10T05:02:13.329Z,73.40
2019-05-10T05:07:16.052Z,73.70
2019-05-10T05:12:18.713Z,73.00
2019-05-10T05:17:21.378Z,73.00
2019-05-10T05:22:43.419Z,73.00
2019-05-10T05:27:46.154Z,73.40
2019-05-10T05:32:48.826Z,73.40
2019-05-10T05:37:51.500Z,73.20
2019-05-10T05:42:54.227Z,72.40
2019-05-10T05:47:57.253Z,72.50
2019-05-10T05:53:00.109Z,72.40
2019-05-10T05:58:04.715Z,72.80
2019-05-10T06:03:07.220Z,72.10
2019-05-10T06:08:21.459Z,71.30
2019-05-10T06:13:14.735Z,72.10
2019-05-10T06:18:17.466Z,72.70
2019-05-10T06:23:20.148Z,71.60
2019-05-10T06:28:58.234Z,71.30
2019-05-10T06:33:46.930Z,71.50
2019-05-10T06:38:49.708Z,72.20
2019-05-10T06:43:53.177Z,72.30
2019-05-10T06:49:07.145Z,71.90
2019-05-10T06:54:01.276Z,71.10
2019-05-10T06:59:12.776Z,71.10
2019-05-10T07:04:08.447Z,70.40
2019-05-10T07:09:11.437Z,69.20
2019-05-10T07:14:14.107Z,70.60
2019-05-10T07:19:16.817Z,70.30
2019-05-10T07:24:25.306Z,70.00
2019-05-10T07:29:30.190Z,69.70
2019-05-10T07:34:28.251Z,69.00
2019-05-10T07:39:41.644Z,68.80
2019-05-10T07:44:46.500Z,68.80
2019-05-10T07:49:45.942Z,67.10
2019-05-10T07:54:48.710Z,66.90
2019-05-10T07:59:51.548Z,66.10
2019-05-10T08:04:54.381Z,66.70
2019-05-10T08:10:18.625Z,67.00
2019-05-10T08:15:24.793Z,65.40
2019-05-10T08:20:38.087Z,63.70
2019-05-10T08:25:36.347Z,64.10
2019-05-10T08:30:51.732Z,63.80
2019-05-10T08:35:52.386Z,64.00
2019-05-10T08:40:52.690Z,62.90
2019-05-10T08:45:57.844Z,61.80
2019-05-10T08:51:04.057Z,59.90
2019-05-10T08:56:07.783Z,60.30
2019-05-10T09:01:20.597Z,60.00
2019-05-10T09:06:16.664Z,58.20
2019-05-10T09:11:17.891Z,59.70
2019-05-10T09:16:20.546Z,58.20
2019-05-10T09:21:23.208Z,59.80
2019-05-10T09:26:25.962Z,58.80
2019-05-10T09:31:28.722Z,57.40
2019-05-10T09:36:36.031Z,56.60
2019-05-10T09:41:38.242Z,57.80
2019-05-10T09:46:42.148Z,56.00
2019-05-10T09:51:44.555Z,55.10
2019-05-10T09:56:51.992Z,57.00
2019-05-10T10:01:51.666Z,56.30
2019-05-10T10:06:54.386Z,57.30
2019-05-10T10:12:01.678Z,56.40
2019-05-10T10:17:03.164Z,56.30
2019-05-10T10:22:11.040Z,56.70
2019-05-10T10:27:10.425Z,54.70
2019-05-10T10:32:13.170Z,53.80
2019-05-10T10:37:22.127Z,54.70
2019-05-10T10:42:20.548Z,54.10
2019-05-10T10:47:30.419Z,54.90
2019-05-10T10:52:27.866Z,54.60
2019-05-10T10:57:30.626Z,55.40
2019-05-10T11:02:34.267Z,54.50
2019-05-10T11:07:41.039Z,53.10
2019-05-10T11:12:41.512Z,52.40
2019-05-10T11:17:44.190Z,50.30
2019-05-10T11:22:49.706Z,45.70
2019-05-10T11:27:54.025Z,54.00
2019-05-10T11:32:55.682Z,53.00
2019-05-10T11:38:01.044Z,53.90
2019-05-10T11:43:02.839Z,55.00
2019-05-10T11:48:05.652Z,56.50
2019-05-10T11:53:13.372Z,56.60
2019-05-10T11:58:13.472Z,55.50
2019-05-10T12:08:22.319Z,53.10
2019-05-10T12:13:25.394Z,53.50
2019-05-10T12:18:32.390Z,52.00
2019-05-10T12:23:33.449Z,48.90
2019-05-10T12:26:04.972Z,55.10
2019-05-10T12:28:36.452Z,47.10
2019-05-10T12:33:42.119Z,47.60
2019-05-10T12:38:43.804Z,47.90
2019-05-10T12:43:48.573Z,45.80
2019-05-10T12:48:51.651Z,49.80
2019-05-10T12:53:54.484Z,50.30
2019-05-10T12:58:59.457Z,51.30
2019-05-10T13:04:02.259Z,49.00
2019-05-10T13:09:06.204Z,50.00
2019-05-10T13:14:09.688Z,48.90
2019-05-10T13:19:14.349Z,49.20
2019-05-10T13:24:17.052Z,47.40
2019-05-10T13:29:19.804Z,45.90
2019-05-10T13:34:24.476Z,45.60
2019-05-10T13:39:27.677Z,46.70
2019-05-10T13:44:30.492Z,45.20
2019-05-10T13:49:33.148Z,47.10
2019-05-10T13:54:36.577Z,47.90
2019-05-10T13:59:40.214Z,48.70
2019-05-10T14:04:42.968Z,47.00
2019-05-10T14:09:45.778Z,46.90
2019-05-10T14:14:48.534Z,46.50
2019-05-10T14:19:51.688Z,46.00
2019-05-10T14:24:58.891Z,46.00
2019-05-10T14:29:58.821Z,46.50
2019-05-10T14:35:01.614Z,45.70
2019-05-10T14:40:06.015Z,47.20
2019-05-10T14:45:08.882Z,47.70
2019-05-10T14:50:11.777Z,47.40
2019-05-10T14:55:14.513Z,47.80
2019-05-10T15:00:17.653Z,46.10
2019-05-10T15:05:20.750Z,46.20
2019-05-10T15:10:23.445Z,46.90
2019-05-10T15:15:31.030Z,47.20
2019-05-10T15:20:30.593Z,46.90
2019-05-10T15:25:33.374Z,48.10
2019-05-10T15:30:39.136Z,47.90
2019-05-10T15:35:45.816Z,47.00
2019-05-10T15:40:45.974Z,48.10
2019-05-10T15:45:52.350Z,48.30
2019-05-10T15:50:53.266Z,48.70
2019-05-10T15:55:58.974Z,49.10
2019-05-10T16:01:00.397Z,48.30
2019-05-10T16:06:03.212Z,49.10
2019-05-10T16:11:18.170Z,51.80
2019-05-10T16:16:10.369Z,52.70
2019-05-10T16:21:15.160Z,55.00
2019-05-10T16:26:22.711Z,54.40
2019-05-10T16:31:21.873Z,56.30
2019-05-10T16:36:28.536Z,53.70
2019-05-10T16:41:29.117Z,53.00
2019-05-10T16:46:31.787Z,53.40
2019-05-10T16:51:34.512Z,52.80
2019-05-10T16:56:39.146Z,53.40
2019-05-10T17:01:41.821Z,52.60
2019-05-10T17:06:44.547Z,52.70
2019-05-10T17:11:48.610Z,52.40
2019-05-10T17:16:58.401Z,52.50
2019-05-10T17:21:56.151Z,52.50
2019-05-10T17:26:58.879Z,52.40
2019-05-10T17:32:01.537Z,52.60
2019-05-10T17:37:04.546Z,53.50
2019-05-10T17:42:07.576Z,53.80
2019-05-10T17:47:10.334Z,54.10
2019-05-10T17:52:13.062Z,53.50
2019-05-10T17:57:16.587Z,53.30
2019-05-10T18:02:20.111Z,54.40
2019-05-10T18:07:22.773Z,54.60
2019-05-10T18:12:27.156Z,53.90
2019-05-10T18:17:30.259Z,54.40
2019-05-10T18:22:41.810Z,54.20
2019-05-10T18:27:37.474Z,54.20
2019-05-10T18:32:40.184Z,54.30
2019-05-10T18:37:43.634Z,54.60
2019-05-10T18:42:47.841Z,54.80
2019-05-10T18:47:50.584Z,55.10
2019-05-10T18:52:53.280Z,54.80
2019-05-10T18:57:56.004Z,55.20
2019-05-10T19:02:58.679Z,55.70
2019-05-10T19:08:05.381Z,55.80
2019-05-10T19:13:06.427Z,56.20
2019-05-10T19:18:09.434Z,56.30
2019-05-10T19:23:13.270Z,56.60
2019-05-10T19:28:20.933Z,56.80
2019-05-10T19:33:21.008Z,56.90
2019-05-10T19:38:23.748Z,57.30
2019-05-10T19:43:26.406Z,57.00
2019-05-10T19:48:35.102Z,57.20
2019-05-10T19:53:36.487Z,56.80
2019-05-10T19:58:38.303Z,57.70
2019-05-10T20:03:41.042Z,57.70
2019-05-10T20:08:44.340Z,57.40
2019-05-10T20:13:48.900Z,58.50
2019-05-10T20:18:51.619Z,58.40
2019-05-10T20:23:54.451Z,59.70
2019-05-10T20:28:57.188Z,60.40
2019-05-10T20:33:59.957Z,61.00
2019-05-10T20:39:03.090Z,60.60
2019-05-10T20:44:05.763Z,61.10
2019-05-10T20:49:08.562Z,59.90
2019-05-10T20:54:11.289Z,60.40
2019-05-10T20:59:14.016Z,61.20
2019-05-10T21:04:16.980Z,61.50
2019-05-10T21:09:20.166Z,61.60
2019-05-10T21:14:22.910Z,62.90
2019-05-10T21:19:25.652Z,62.00
2019-05-10T21:24:28.325Z,63.00
2019-05-10T21:29:31.399Z,62.60
2019-05-10T21:34:34.130Z,63.20
2019-05-10T21:39:36.831Z,63.20
2019-05-10T21:44:39.480Z,63.20
2019-05-10T21:49:42.173Z,63.40
2019-05-10T21:54:44.822Z,63.20
2019-05-10T21:59:47.485Z,62.70
2019-05-10T22:04:50.286Z,63.10
2019-05-10T22:09:53.011Z,62.60
2019-05-10T22:14:55.678Z,62.50
2019-05-10T22:19:58.408Z,63.00
2019-05-10T22:25:01.068Z,62.70
2019-05-10T22:30:06.116Z,62.80
2019-05-10T22:35:09.109Z,63.10
2019-05-10T22:40:11.938Z,63.40
2019-05-10T22:45:14.772Z,62.50
2019-05-10T22:50:17.933Z,62.60
2019-05-10T22:55:21.023Z,62.70
2019-05-10T23:00:24.033Z,62.30
2019-05-10T23:05:26.699Z,62.70
2019-05-10T23:10:29.430Z,62.60
2019-05-10T23:15:32.108Z,62.80
2019-05-10T23:20:34.774Z,62.70
2019-05-10T23:25:37.728Z,63.20
2019-05-10T23:30:40.454Z,62.50
2019-05-10T23:35:43.126Z,63.10
2019-05-10T23:40:45.781Z,63.00
2019-05-10T23:45:48.535Z,63.00
2019-05-10T23:50:51.199Z,62.50
2019-05-10T23:55:53.855Z,62.30
